createdAt,value
2022-11-24T00:00:34.230Z,89.3
2022-11-24T00:01:34.234Z,89.2
2022-11-24T00:02:34.726Z,88.9
2022-11-24T00:03:34.483Z,87.4
2022-11-24T00:04:35.279Z,88.6
2022-11-24T00:05:34.267Z,88.5
2022-11-24T00:06:34.270Z,88.3
2022-11-24T00:07:34.436Z,88.4
2022-11-24T00:08:34.288Z,88.2
2022-11-24T00:09:34.299Z,87.8
2022-11-24T00:10:34.311Z,88.1
2022-11-24T00:11:34.308Z,88.2
2022-11-24T00:12:34.326Z,88.3
2022-11-24T00:13:34.333Z,88.3
2022-11-24T00:14:35.324Z,88.4
2022-11-24T00:15:34.347Z,88.5
2022-11-24T00:16:34.606Z,88.3
2022-11-24T00:17:34.356Z,88.1
2022-11-24T00:18:34.371Z,87.8
2022-11-24T00:19:34.377Z,87.9
2022-11-24T00:20:34.382Z,88.1
2022-11-24T00:21:34.394Z,87.7
2022-11-24T00:22:34.398Z,86.9
2022-11-24T00:23:34.434Z,87.7
2022-11-24T00:24:35.300Z,87.4
2022-11-24T00:25:34.422Z,86.6
2022-11-24T00:26:34.438Z,87.1
2022-11-24T00:27:34.456Z,86.9
2022-11-24T00:28:34.467Z,86.9
2022-11-24T00:29:34.477Z,87.2
2022-11-24T00:30:34.653Z,87.0
2022-11-24T00:31:34.715Z,86.8
2022-11-24T00:32:34.493Z,87.2
2022-11-24T00:33:34.501Z,87.5
2022-11-24T00:34:35.764Z,87.0
2022-11-24T00:35:34.528Z,86.7
2022-11-24T00:36:34.538Z,86.3
2022-11-24T00:37:34.549Z,86.9
2022-11-24T00:38:34.558Z,87.1
2022-11-24T00:39:34.590Z,86.9
2022-11-24T00:40:35.413Z,86.6
2022-11-24T00:41:34.582Z,86.8
2022-11-24T00:42:34.588Z,86.7
2022-11-24T00:43:34.610Z,86.4
2022-11-24T00:44:35.404Z,86.8
2022-11-24T00:45:34.802Z,86.4
2022-11-24T00:46:35.248Z,86.9
2022-11-24T00:47:34.631Z,86.1
2022-11-24T00:48:34.646Z,85.9
2022-11-24T00:49:34.637Z,86.4
2022-11-24T00:50:34.648Z,86.4
2022-11-24T00:51:34.663Z,86.6
2022-11-24T00:52:34.666Z,86.6
2022-11-24T00:53:34.682Z,86.8
2022-11-24T00:54:35.771Z,86.1
2022-11-24T00:55:34.706Z,86.4
2022-11-24T00:56:34.702Z,86.1
2022-11-24T00:57:34.893Z,86.1
2022-11-24T00:58:34.715Z,85.9
2022-11-24T00:59:34.724Z,86.2
2022-11-24T01:00:34.724Z,86.0
2022-11-24T01:01:34.883Z,86.2
2022-11-24T01:02:34.970Z,86.1
2022-11-24T01:03:34.761Z,85.8
2022-11-24T01:04:35.763Z,86.0
2022-11-24T01:05:34.790Z,86.0
2022-11-24T01:06:34.782Z,85.9
2022-11-24T01:07:34.980Z,86.3
2022-11-24T01:08:34.799Z,86.1
2022-11-24T01:09:34.806Z,86.0
2022-11-24T01:10:34.816Z,86.1
2022-11-24T01:11:34.819Z,86.1
2022-11-24T01:12:34.828Z,85.9
2022-11-24T01:13:34.848Z,85.8
2022-11-24T01:14:36.073Z,86.0
2022-11-24T01:15:35.054Z,86.1
2022-11-24T01:16:34.865Z,85.6
2022-11-24T01:17:34.877Z,85.5
2022-11-24T01:18:34.876Z,85.7
2022-11-24T01:19:34.890Z,85.4
2022-11-24T01:20:34.901Z,85.3
2022-11-24T01:21:34.897Z,85.5
2022-11-24T01:22:34.925Z,85.5
2022-11-24T01:23:34.928Z,85.2
2022-11-24T01:24:36.094Z,85.4
2022-11-24T01:25:34.950Z,85.4
2022-11-24T01:26:34.944Z,85.3
2022-11-24T01:27:35.063Z,85.4
2022-11-24T01:28:34.967Z,85.2
2022-11-24T01:29:34.990Z,85.3
2022-11-24T01:30:35.139Z,85.4
2022-11-24T01:31:35.059Z,85.3
2022-11-24T01:32:35.009Z,85.3
2022-11-24T01:33:35.019Z,85.3
2022-11-24T01:34:35.932Z,85.2
2022-11-24T01:52:35.548Z,85.2
2022-11-24T01:53:35.208Z,85.1
2022-11-24T01:54:36.503Z,85.2
2022-11-24T01:55:35.226Z,85.2
2022-11-24T01:56:35.250Z,85.3
2022-11-24T01:57:35.257Z,85.4
2022-11-24T01:58:35.272Z,85.4
2022-11-24T01:59:35.284Z,85.4
2022-11-24T02:00:35.299Z,85.3
2022-11-24T02:01:35.533Z,85.4
2022-11-24T02:02:35.542Z,85.3
2022-11-24T02:03:35.325Z,85.3
2022-11-24T02:04:36.234Z,85.4
2022-11-24T02:05:35.321Z,85.5
2022-11-24T02:06:35.348Z,85.4
2022-11-24T02:07:35.531Z,85.3
2022-11-24T02:08:35.355Z,85.4
2022-11-24T02:09:35.372Z,85.4
2022-11-24T02:10:35.384Z,85.5
2022-11-24T02:11:35.397Z,85.5
2022-11-24T02:12:35.401Z,85.3
2022-11-24T02:13:35.415Z,85.3
2022-11-24T02:14:36.115Z,85.4
2022-11-24T02:15:35.663Z,85.4
2022-11-24T02:16:35.432Z,85.4
2022-11-24T02:17:35.460Z,85.4
2022-11-24T02:18:35.460Z,85.3
2022-11-24T02:19:35.463Z,85.4
2022-11-24T02:20:35.479Z,85.3
2022-11-24T02:21:35.480Z,85.3
2022-11-24T02:22:35.493Z,85.3
2022-11-24T02:23:35.501Z,85.3
2022-11-24T02:24:36.213Z,85.3
2022-11-24T02:25:35.517Z,85.3
2022-11-24T02:26:35.530Z,85.3
2022-11-24T02:27:35.528Z,85.3
2022-11-24T02:28:35.548Z,85.3
2022-11-24T02:29:35.686Z,85.4
2022-11-24T02:30:35.569Z,85.4
2022-11-24T02:31:35.909Z,85.3
2022-11-24T02:32:35.591Z,85.4
2022-11-24T02:33:35.600Z,85.4
2022-11-24T02:34:36.426Z,85.4
2022-11-24T02:35:35.615Z,85.4
2022-11-24T02:36:35.611Z,85.4
2022-11-24T02:37:35.630Z,85.4
2022-11-24T02:38:35.658Z,85.4
2022-11-24T02:39:35.638Z,85.4
2022-11-24T02:40:35.639Z,85.4
2022-11-24T02:41:35.654Z,85.4
2022-11-24T02:42:35.665Z,85.4
2022-11-24T02:43:35.661Z,85.5
2022-11-24T02:44:36.413Z,85.4
2022-11-24T02:45:35.685Z,85.5
2022-11-24T02:46:35.876Z,85.4
2022-11-24T02:47:35.705Z,85.5
2022-11-24T02:48:35.717Z,85.5
2022-11-24T02:49:35.726Z,85.4
2022-11-24T02:50:35.737Z,85.4
2022-11-24T02:51:35.735Z,85.4
2022-11-24T02:52:35.747Z,85.5
2022-11-24T02:53:35.754Z,85.5
2022-11-24T02:54:37.244Z,85.5
2022-11-24T02:55:35.774Z,85.6
2022-11-24T02:56:35.777Z,85.7
2022-11-24T02:57:35.796Z,85.8
2022-11-24T02:58:35.798Z,85.8
2022-11-24T02:59:35.815Z,85.8
2022-11-24T03:00:35.826Z,86.0
2022-11-24T03:01:35.944Z,86.1
2022-11-24T03:02:36.015Z,86.2
2022-11-24T03:03:35.849Z,86.2
2022-11-24T03:04:36.893Z,86.2
2022-11-24T03:05:35.882Z,86.2
2022-11-24T03:06:35.877Z,86.3
2022-11-24T03:07:36.051Z,86.5
2022-11-24T03:08:35.891Z,86.7
2022-11-24T03:09:35.908Z,86.8
2022-11-24T03:10:35.927Z,86.8
2022-11-24T03:11:35.932Z,86.9
2022-11-24T03:12:35.938Z,87.0
2022-11-24T03:13:35.942Z,87.1
2022-11-24T03:14:37.133Z,87.2
2022-11-24T03:15:36.195Z,87.4
2022-11-24T03:16:35.973Z,87.5
2022-11-24T03:17:35.975Z,87.5
2022-11-24T03:18:35.988Z,87.8
2022-11-24T03:19:35.989Z,87.8
2022-11-24T03:20:36.003Z,87.7
2022-11-24T03:21:36.005Z,87.9
2022-11-24T03:22:36.014Z,87.8
2022-11-24T03:23:36.040Z,88.0
2022-11-24T03:24:36.779Z,87.9
2022-11-24T03:25:36.047Z,87.9
2022-11-24T03:26:36.064Z,88.3
2022-11-24T03:27:36.082Z,88.3
2022-11-24T03:28:36.084Z,88.4
2022-11-24T03:29:36.085Z,88.6
2022-11-24T03:30:36.109Z,88.7
2022-11-24T03:31:36.310Z,88.6
2022-11-24T03:32:36.125Z,88.5
2022-11-24T03:33:36.145Z,88.4
2022-11-24T03:34:36.855Z,88.3
2022-11-24T03:35:36.158Z,88.2
2022-11-24T03:36:36.160Z,88.2
2022-11-24T03:37:36.190Z,88.3
2022-11-24T03:38:36.189Z,88.2
2022-11-24T03:39:36.189Z,88.3
2022-11-24T03:40:36.194Z,88.4
2022-11-24T03:41:36.209Z,88.3
2022-11-24T03:42:36.226Z,88.3
2022-11-24T03:43:44.492Z,88.3
2022-11-24T03:44:36.854Z,88.4
2022-11-24T03:45:46.904Z,88.4
2022-11-24T03:46:36.560Z,88.5
2022-11-24T03:47:36.303Z,88.8
2022-11-24T03:48:36.334Z,89.0
2022-11-24T03:49:36.546Z,89.1
2022-11-24T03:50:36.305Z,89.3
2022-11-24T03:51:36.308Z,89.4
2022-11-24T03:52:36.323Z,89.3
2022-11-24T03:53:36.322Z,89.4
2022-11-24T03:54:36.545Z,89.4
2022-11-24T03:55:36.332Z,89.4
2022-11-24T03:56:36.384Z,89.4
2022-11-24T03:57:36.344Z,89.2
2022-11-24T03:58:36.377Z,89.1
2022-11-24T03:59:36.359Z,88.9
2022-11-24T04:00:36.361Z,88.4
2022-11-24T04:01:36.571Z,88.4
2022-11-24T04:02:36.605Z,88.2
2022-11-24T04:03:36.398Z,88.0
2022-11-24T04:04:36.556Z,87.8
2022-11-24T04:05:36.456Z,87.5
2022-11-24T04:06:36.437Z,87.3
2022-11-24T04:07:36.739Z,86.9
2022-11-24T04:08:36.456Z,86.9
2022-11-24T04:09:36.476Z,86.8
2022-11-24T04:10:36.482Z,86.6
2022-11-24T04:11:36.490Z,86.4
2022-11-24T04:12:36.499Z,86.3
2022-11-24T04:13:36.508Z,86.1
2022-11-24T04:14:38.019Z,86.2
2022-11-24T04:15:36.526Z,86.1
2022-11-24T04:16:36.790Z,86.0
2022-11-24T04:17:36.556Z,85.9
2022-11-24T04:18:36.569Z,85.8
2022-11-24T04:19:36.576Z,85.8
2022-11-24T04:20:36.589Z,85.7
2022-11-24T04:21:36.604Z,85.7
2022-11-24T04:22:36.608Z,85.6
2022-11-24T04:23:36.615Z,85.7
2022-11-24T04:24:36.863Z,85.7
2022-11-24T04:25:36.636Z,85.6
2022-11-24T04:26:36.630Z,85.6
2022-11-24T04:27:36.660Z,85.6
2022-11-24T04:28:36.655Z,85.5
2022-11-24T04:29:36.664Z,85.4
2022-11-24T04:30:36.672Z,85.3
2022-11-24T04:31:36.982Z,85.4
2022-11-24T04:32:36.699Z,85.3
2022-11-24T04:33:36.702Z,85.4
2022-11-24T04:34:36.992Z,85.3
2022-11-24T04:35:36.716Z,85.3
2022-11-24T04:36:36.740Z,85.3
2022-11-24T04:37:36.759Z,85.3
2022-11-24T04:39:19.296Z,85.3
2022-11-24T04:39:36.755Z,85.3
2022-11-24T04:40:36.780Z,85.2
2022-11-24T04:41:36.778Z,85.2
2022-11-24T04:42:36.787Z,85.2
2022-11-24T04:43:41.104Z,85.1
2022-11-24T04:44:37.503Z,85.1
2022-11-24T04:45:36.822Z,85.1
2022-11-24T04:46:37.092Z,85.2
2022-11-24T04:47:36.831Z,85.2
2022-11-24T04:48:36.840Z,85.2
2022-11-24T04:49:36.851Z,85.1
2022-11-24T04:50:36.862Z,85.1
2022-11-24T04:51:36.892Z,85.1
2022-11-24T04:52:36.902Z,85.0
2022-11-24T04:53:36.904Z,85.0
2022-11-24T04:54:36.905Z,85.0
2022-11-24T04:55:36.911Z,85.0
2022-11-24T04:56:36.933Z,85.0
2022-11-24T04:57:36.927Z,84.9
2022-11-24T04:58:36.957Z,84.9
2022-11-24T04:59:36.958Z,84.9
2022-11-24T05:00:36.955Z,84.9
2022-11-24T05:01:37.131Z,84.9
2022-11-24T05:02:36.988Z,84.9
2022-11-24T05:03:36.983Z,84.9
2022-11-24T05:04:38.244Z,84.9
2022-11-24T05:05:37.018Z,84.9
2022-11-24T05:06:37.013Z,84.9
2022-11-24T05:07:37.209Z,84.9
2022-11-24T05:08:37.037Z,84.9
2022-11-24T05:09:59.462Z,84.9
2022-11-24T05:10:37.044Z,84.9
2022-11-24T05:11:37.065Z,84.9
2022-11-24T05:12:37.076Z,84.9
2022-11-24T05:13:37.083Z,84.9
2022-11-24T05:14:37.099Z,84.8
2022-11-24T05:15:37.098Z,84.8
2022-11-24T05:16:37.424Z,84.8
2022-11-24T05:17:37.124Z,84.9
2022-11-24T05:18:37.139Z,84.9
2022-11-24T05:19:37.494Z,84.9
2022-11-24T05:20:37.161Z,84.9
2022-11-24T05:21:37.164Z,84.8
2022-11-24T05:22:37.160Z,84.8
2022-11-24T05:23:37.187Z,84.7
2022-11-24T05:24:37.186Z,84.7
2022-11-24T05:25:37.210Z,84.8
2022-11-24T05:26:37.209Z,84.8
2022-11-24T05:27:37.215Z,84.8
2022-11-24T05:28:37.230Z,84.8
2022-11-24T05:29:37.239Z,84.8
2022-11-24T05:30:37.253Z,84.8
2022-11-24T05:31:37.591Z,84.7
2022-11-24T05:32:37.272Z,84.7
2022-11-24T05:33:37.282Z,84.7
2022-11-24T05:34:37.291Z,84.8
2022-11-24T05:35:37.300Z,84.8
2022-11-24T05:36:37.308Z,84.8
2022-11-24T05:37:37.335Z,84.8
2022-11-24T05:38:37.344Z,84.7
2022-11-24T05:39:37.363Z,84.8
2022-11-24T05:40:37.358Z,84.8
2022-11-24T05:41:37.373Z,84.8
2022-11-24T05:42:48.315Z,84.9
2022-11-24T05:43:37.395Z,84.9
2022-11-24T05:44:37.409Z,84.9
2022-11-24T05:45:37.414Z,84.9
2022-11-24T05:46:37.621Z,84.9
2022-11-24T05:47:37.636Z,84.9
2022-11-24T05:48:37.454Z,84.9
2022-11-24T05:49:37.465Z,84.9
2022-11-24T05:50:37.475Z,84.9
2022-11-24T05:51:37.505Z,84.9
2022-11-24T05:52:37.492Z,84.9
2022-11-24T05:53:37.502Z,84.9
2022-11-24T05:54:37.526Z,84.9
2022-11-24T05:55:37.535Z,84.9
2022-11-24T05:56:37.548Z,84.9
2022-11-24T05:57:37.551Z,84.9
2022-11-24T05:58:37.558Z,85.0
2022-11-24T05:59:37.577Z,85.0
2022-11-24T06:00:37.617Z,85.0
2022-11-24T06:01:38.055Z,85.0
2022-11-24T06:02:38.102Z,85.0
2022-11-24T06:03:37.611Z,85.0
2022-11-24T06:04:37.788Z,84.9
2022-11-24T06:05:37.621Z,85.0
2022-11-24T06:06:37.648Z,85.0
2022-11-24T06:07:37.854Z,84.9
2022-11-24T06:08:37.661Z,84.9
2022-11-24T06:09:37.668Z,84.9
2022-11-24T06:10:37.697Z,84.9
2022-11-24T06:11:37.693Z,84.8
2022-11-24T06:12:37.699Z,84.8
2022-11-24T06:13:38.233Z,84.8
2022-11-24T06:14:37.722Z,84.8
2022-11-24T06:15:38.015Z,84.9
2022-11-24T06:16:38.095Z,85.0
2022-11-24T06:17:37.750Z,85.0
2022-11-24T06:18:37.757Z,85.0
2022-11-24T06:19:42.503Z,85.0
2022-11-24T06:20:37.805Z,85.0
2022-11-24T06:21:37.800Z,84.9
2022-11-24T06:22:37.813Z,85.0
2022-11-24T06:23:37.821Z,84.9
2022-11-24T06:24:37.846Z,84.9
2022-11-24T06:25:37.854Z,84.9
2022-11-24T06:26:37.877Z,84.8
2022-11-24T06:27:37.863Z,84.9
2022-11-24T06:28:37.872Z,84.9
2022-11-24T06:29:37.878Z,84.9
2022-11-24T06:30:37.902Z,84.9
2022-11-24T06:31:38.078Z,85.0
2022-11-24T06:32:37.894Z,85.0
2022-11-24T06:33:37.911Z,85.0
2022-11-24T06:34:37.918Z,85.0
2022-11-24T06:35:37.930Z,85.1
2022-11-24T06:36:37.939Z,85.1
2022-11-24T06:37:37.960Z,85.1
2022-11-24T06:38:37.972Z,85.1
2022-11-24T06:39:37.979Z,85.1
2022-11-24T06:40:37.994Z,85.0
2022-11-24T06:41:37.989Z,85.0
2022-11-24T06:42:38.006Z,85.0
2022-11-24T06:43:38.028Z,85.0
2022-11-24T06:44:38.246Z,85.0
2022-11-24T06:45:38.208Z,85.1
2022-11-24T06:46:38.044Z,85.0
2022-11-24T06:47:38.061Z,85.1
2022-11-24T06:48:38.071Z,85.2
2022-11-24T06:49:38.074Z,85.2
2022-11-24T06:50:38.081Z,85.2
2022-11-24T06:51:38.104Z,85.3
2022-11-24T06:52:38.096Z,85.3
2022-11-24T06:53:38.573Z,85.3
2022-11-24T06:54:38.127Z,85.4
2022-11-24T06:55:38.148Z,85.4
2022-11-24T06:56:38.165Z,85.3
2022-11-24T06:57:38.159Z,85.4
2022-11-24T06:58:38.192Z,85.4
2022-11-24T06:59:38.187Z,85.3
2022-11-24T07:00:38.472Z,85.3
2022-11-24T07:01:38.472Z,85.2
2022-11-24T07:02:46.380Z,85.2
2022-11-24T07:03:38.238Z,85.2
2022-11-24T07:04:38.248Z,85.1
2022-11-24T07:05:38.267Z,85.1
2022-11-24T07:06:38.274Z,85.1
2022-11-24T07:07:38.439Z,85.1
2022-11-24T07:08:38.308Z,85.1
2022-11-24T07:09:38.305Z,85.2
2022-11-24T07:10:38.331Z,85.4
2022-11-24T07:11:38.346Z,85.5
2022-11-24T07:12:38.356Z,85.9
2022-11-24T07:13:38.350Z,85.9
2022-11-24T07:14:38.364Z,86.1
2022-11-24T07:15:38.377Z,86.3
2022-11-24T07:16:38.520Z,86.2
2022-11-24T07:17:38.395Z,86.2
2022-11-24T07:18:38.403Z,86.2
2022-11-24T07:19:38.418Z,86.2
2022-11-24T07:20:38.431Z,86.1
2022-11-24T07:21:38.444Z,86.0
2022-11-24T07:22:38.457Z,86.0
2022-11-24T07:23:38.480Z,86.1
2022-11-24T07:24:38.469Z,86.1
2022-11-24T07:25:38.490Z,86.1
2022-11-24T07:26:38.492Z,86.1
2022-11-24T07:27:38.503Z,86.1
2022-11-24T07:28:38.520Z,86.1
2022-11-24T07:29:38.528Z,86.2
2022-11-24T07:30:38.544Z,86.3
2022-11-24T07:31:38.795Z,86.5
2022-11-24T07:32:38.570Z,86.6
2022-11-24T07:33:38.571Z,86.7
2022-11-24T07:34:38.601Z,86.7
2022-11-24T07:35:38.607Z,86.7
2022-11-24T07:36:38.617Z,86.7
2022-11-24T07:37:38.624Z,86.6
2022-11-24T07:38:38.648Z,86.6
2022-11-24T07:39:38.648Z,86.7
2022-11-24T07:40:38.649Z,86.7
2022-11-24T07:41:38.669Z,86.7
2022-11-24T07:42:38.672Z,86.7
2022-11-24T07:43:38.689Z,86.6
2022-11-24T07:44:38.686Z,86.4
2022-11-24T07:45:38.867Z,86.4
2022-11-24T07:46:38.716Z,86.3
2022-11-24T07:47:38.728Z,86.0
2022-11-24T07:48:38.720Z,85.8
2022-11-24T07:49:38.736Z,85.7
2022-11-24T07:50:38.741Z,85.7
2022-11-24T07:51:38.746Z,85.9
2022-11-24T07:52:38.768Z,85.9
2022-11-24T07:53:38.768Z,86.1
2022-11-24T07:54:38.787Z,86.1
2022-11-24T07:55:38.780Z,86.3
2022-11-24T07:56:38.809Z,86.5
2022-11-24T07:57:38.806Z,86.7
2022-11-24T07:58:38.814Z,86.7
2022-11-24T07:59:38.824Z,86.7
2022-11-24T08:00:38.834Z,86.7
2022-11-24T08:01:38.967Z,86.6
2022-11-24T08:02:38.856Z,86.6
2022-11-24T08:03:39.127Z,86.6
2022-11-24T08:04:38.876Z,86.5
2022-11-24T08:06:47.871Z,86.3
2022-11-24T08:07:39.133Z,86.1
2022-11-24T08:08:38.906Z,86.0
2022-11-24T08:09:38.918Z,86.2
2022-11-24T08:10:38.942Z,86.1
2022-11-24T08:11:38.950Z,86.3
2022-11-24T08:12:38.969Z,86.4
2022-11-24T08:13:38.976Z,86.6
2022-11-24T08:14:38.995Z,86.8
2022-11-24T08:15:39.015Z,86.8
2022-11-24T08:16:39.229Z,87.0
2022-11-24T08:17:39.018Z,87.0
2022-11-24T08:18:39.036Z,87.0
2022-11-24T08:19:39.038Z,87.0
2022-11-24T08:20:39.061Z,87.0
2022-11-24T08:21:39.069Z,86.9
2022-11-24T08:22:39.079Z,86.8
2022-11-24T08:23:39.089Z,86.7
2022-11-24T08:24:39.111Z,86.6
2022-11-24T08:25:39.130Z,86.6
2022-11-24T08:26:39.136Z,86.5
2022-11-24T08:27:39.158Z,86.3
2022-11-24T08:28:39.159Z,86.2
2022-11-24T08:29:39.184Z,86.3
2022-11-24T08:30:39.183Z,86.3
2022-11-24T08:31:39.280Z,86.3
2022-11-24T08:32:39.205Z,86.1
2022-11-24T08:33:39.219Z,85.9
2022-11-24T08:34:39.237Z,85.8
2022-11-24T08:35:39.242Z,85.8
2022-11-24T08:36:39.261Z,85.3
2022-11-24T08:37:39.267Z,85.3
2022-11-24T08:38:39.277Z,85.1
2022-11-24T08:39:39.289Z,85.0
2022-11-24T08:40:39.293Z,84.8
2022-11-24T08:41:39.304Z,84.7
2022-11-24T08:42:39.312Z,84.5
2022-11-24T08:43:39.328Z,84.3
2022-11-24T08:44:39.337Z,84.2
2022-11-24T08:45:42.468Z,84.2
2022-11-24T08:46:39.605Z,84.1
2022-11-24T08:47:39.359Z,84.0
2022-11-24T08:48:39.374Z,83.9
2022-11-24T08:49:39.398Z,83.8
2022-11-24T08:50:39.383Z,83.8
2022-11-24T08:51:39.410Z,83.7
2022-11-24T08:52:39.409Z,83.6
2022-11-24T08:53:39.426Z,83.7
2022-11-24T08:54:39.438Z,83.8
2022-11-24T08:55:39.450Z,83.7
2022-11-24T08:56:39.479Z,83.6
2022-11-24T08:57:39.502Z,83.6
2022-11-24T08:58:39.652Z,83.5
2022-11-24T08:59:39.587Z,83.6
2022-11-24T09:00:39.503Z,83.5
2022-11-24T09:01:39.741Z,83.4
2022-11-24T09:02:39.523Z,83.3
2022-11-24T09:03:51.317Z,83.2
2022-11-24T09:04:39.720Z,83.3
2022-11-24T09:05:53.094Z,83.1
2022-11-24T09:06:39.565Z,83.1
2022-11-24T09:07:39.778Z,83.1
2022-11-24T09:08:39.582Z,83.1
2022-11-24T09:09:39.587Z,82.9
2022-11-24T09:10:39.609Z,83.0
2022-11-24T09:11:39.614Z,83.1
2022-11-24T09:12:39.632Z,83.0
2022-11-24T09:13:39.641Z,82.8
2022-11-24T09:14:39.651Z,82.6
2022-11-24T09:15:39.668Z,82.4
2022-11-24T09:16:39.791Z,82.3
2022-11-24T09:17:39.661Z,82.2
2022-11-24T09:18:39.694Z,82.2
2022-11-24T09:19:39.686Z,82.2
2022-11-24T09:20:39.702Z,81.8
2022-11-24T09:21:39.707Z,81.9
2022-11-24T09:22:39.719Z,81.9
2022-11-24T09:23:39.718Z,81.9
2022-11-24T09:24:39.728Z,82.0
2022-11-24T09:25:39.765Z,81.7
2022-11-24T09:26:48.069Z,81.5
2022-11-24T09:27:39.762Z,81.5
2022-11-24T09:28:39.777Z,81.4
2022-11-24T09:29:39.786Z,81.4
2022-11-24T09:30:39.919Z,81.3
2022-11-24T09:31:39.819Z,81.3
2022-11-24T09:32:39.818Z,81.0
2022-11-24T09:33:39.840Z,81.1
2022-11-24T09:34:39.839Z,81.1
2022-11-24T09:35:55.417Z,81.1
2022-11-24T09:36:47.226Z,81.1
2022-11-24T09:37:39.872Z,81.0
2022-11-24T09:38:39.870Z,81.0
2022-11-24T09:39:39.913Z,80.9
2022-11-24T09:40:39.892Z,80.8
2022-11-24T09:41:39.907Z,80.8
2022-11-24T09:42:39.935Z,80.9
2022-11-24T09:43:39.933Z,80.9
2022-11-24T09:44:39.939Z,81.0
2022-11-24T09:46:07.021Z,80.9
2022-11-24T09:46:40.184Z,80.9
2022-11-24T09:47:39.974Z,80.6
2022-11-24T09:48:39.965Z,80.6
2022-11-24T09:49:39.981Z,80.4
2022-11-24T09:50:39.993Z,80.3
2022-11-24T09:51:39.998Z,80.2
2022-11-24T09:52:40.037Z,80.1
2022-11-24T09:53:40.027Z,80.1
2022-11-24T09:54:40.083Z,80.1
2022-11-24T09:55:40.085Z,80.1
2022-11-24T09:56:40.070Z,79.8
2022-11-24T09:57:40.062Z,79.9
2022-11-24T09:58:40.111Z,79.9
2022-11-24T09:59:40.075Z,79.5
2022-11-24T10:00:40.087Z,79.4
2022-11-24T10:01:40.609Z,79.3
2022-11-24T10:02:40.137Z,79.2
2022-11-24T10:03:40.158Z,79.1
2022-11-24T10:04:40.492Z,78.9
2022-11-24T10:05:40.166Z,79.1
2022-11-24T10:06:40.193Z,79.1
2022-11-24T10:07:40.384Z,78.8
2022-11-24T10:08:40.191Z,78.4
2022-11-24T10:09:40.203Z,78.2
2022-11-24T10:10:40.270Z,78.1
2022-11-24T10:11:40.229Z,78.0
2022-11-24T10:12:40.242Z,77.9
2022-11-24T10:13:40.332Z,77.9
2022-11-24T10:14:40.297Z,77.9
2022-11-24T10:15:40.569Z,77.7
2022-11-24T10:16:40.290Z,77.5
2022-11-24T10:17:40.303Z,77.6
2022-11-24T10:18:40.299Z,77.7
2022-11-24T10:19:41.518Z,77.8
2022-11-24T10:20:40.368Z,77.9
2022-11-24T10:21:40.386Z,77.8
2022-11-24T10:22:40.376Z,77.7
2022-11-24T10:23:40.354Z,77.6
2022-11-24T10:24:40.392Z,77.5
2022-11-24T10:25:40.438Z,77.5
2022-11-24T10:26:40.396Z,77.6
2022-11-24T10:27:40.432Z,77.6
2022-11-24T10:28:40.434Z,77.3
2022-11-24T10:29:40.445Z,77.4
2022-11-24T10:30:40.801Z,77.5
2022-11-24T10:31:40.459Z,77.3
2022-11-24T10:32:40.487Z,77.1
2022-11-24T10:33:40.449Z,77.2
2022-11-24T10:34:40.521Z,76.9
2022-11-24T10:35:40.507Z,77.0
2022-11-24T10:36:40.493Z,76.9
2022-11-24T10:37:40.511Z,76.8
2022-11-24T10:38:40.517Z,76.6
2022-11-24T10:39:40.538Z,76.6
2022-11-24T10:40:58.743Z,76.5
2022-11-24T10:41:40.563Z,76.0
2022-11-24T10:42:40.567Z,75.8
2022-11-24T10:43:40.572Z,75.6
2022-11-24T10:44:40.597Z,75.3
2022-11-24T10:45:40.592Z,74.9
2022-11-24T10:46:40.832Z,74.7
2022-11-24T10:47:40.627Z,74.7
2022-11-24T10:48:40.633Z,75.0
2022-11-24T10:49:40.644Z,75.0
2022-11-24T10:50:40.656Z,75.1
2022-11-24T10:51:40.674Z,75.0
2022-11-24T10:52:40.681Z,75.0
2022-11-24T10:53:40.695Z,75.0
2022-11-24T10:54:41.662Z,75.0
2022-11-24T10:55:40.705Z,74.9
2022-11-24T10:56:40.730Z,75.2
2022-11-24T10:57:40.726Z,74.9
2022-11-24T10:58:40.739Z,75.1
2022-11-24T10:59:40.738Z,75.3
2022-11-24T11:00:40.758Z,75.1
2022-11-24T11:01:41.129Z,75.3
2022-11-24T11:02:41.119Z,75.4
2022-11-24T11:03:40.789Z,75.4
2022-11-24T11:04:40.805Z,75.5
2022-11-24T11:05:40.822Z,75.7
2022-11-24T11:06:40.833Z,75.8
2022-11-24T11:07:41.008Z,75.8
2022-11-24T11:08:40.846Z,75.8
2022-11-24T11:09:40.860Z,75.8
2022-11-24T11:10:40.877Z,75.7
2022-11-24T11:11:40.880Z,75.7
2022-11-24T11:12:45.652Z,75.8
2022-11-24T11:13:40.900Z,75.6
2022-11-24T11:14:40.920Z,75.7
2022-11-24T11:15:41.072Z,75.6
2022-11-24T11:16:40.934Z,75.4
2022-11-24T11:17:40.939Z,75.4
2022-11-24T11:18:40.959Z,75.4
2022-11-24T11:19:53.364Z,75.3
2022-11-24T11:20:40.975Z,75.0
2022-11-24T11:21:40.985Z,74.9
2022-11-24T11:22:40.997Z,75.0
2022-11-24T11:23:41.028Z,74.8
2022-11-24T11:24:41.020Z,74.9
2022-11-24T11:25:41.044Z,74.8
2022-11-24T11:26:41.039Z,74.6
2022-11-24T11:27:41.112Z,74.7
2022-11-24T11:28:41.091Z,74.6
2022-11-24T11:31:41.634Z,74.4
2022-11-24T11:34:02.590Z,74.3
2022-11-24T11:34:41.904Z,74.2
2022-11-24T11:35:41.143Z,74.0
2022-11-24T11:36:41.158Z,74.2
2022-11-24T11:37:41.179Z,74.3
2022-11-24T11:38:41.213Z,74.3
2022-11-24T11:39:49.388Z,74.5
2022-11-24T11:40:41.213Z,74.8
2022-11-24T11:41:41.230Z,75.0
2022-11-24T11:43:02.680Z,75.0
2022-11-24T11:43:41.260Z,75.1
2022-11-24T11:44:41.277Z,75.2
2022-11-24T11:45:41.404Z,75.2
2022-11-24T11:46:41.559Z,75.3
2022-11-24T11:47:41.312Z,75.6
2022-11-24T11:48:44.254Z,75.6
2022-11-24T11:49:41.325Z,75.6
2022-11-24T11:51:22.629Z,75.8
2022-11-24T11:51:41.550Z,75.9
2022-11-24T11:52:41.363Z,75.9
2022-11-24T11:53:41.376Z,75.8
2022-11-24T11:54:41.387Z,75.9
2022-11-24T11:55:50.388Z,75.8
2022-11-24T11:56:41.412Z,75.9
2022-11-24T11:57:41.413Z,75.8
2022-11-24T11:58:41.432Z,75.9
2022-11-24T11:59:41.440Z,76.0
2022-11-24T12:00:41.442Z,76.2
2022-11-24T12:01:41.458Z,76.4
2022-11-24T12:02:41.791Z,76.5
2022-11-24T12:03:41.978Z,76.6
2022-11-24T12:04:41.475Z,76.7
2022-11-24T12:05:41.490Z,76.9
2022-11-24T12:06:41.501Z,77.1
2022-11-24T12:07:42.013Z,77.1
2022-11-24T12:09:19.640Z,77.1
2022-11-24T12:09:41.620Z,77.1
2022-11-24T12:10:41.557Z,77.0
2022-11-24T12:11:41.573Z,76.9
2022-11-24T12:12:41.580Z,76.7
2022-11-24T12:13:41.596Z,76.7
2022-11-24T12:14:41.596Z,76.6
2022-11-24T12:15:41.793Z,76.4
2022-11-24T12:16:41.611Z,76.3
2022-11-24T12:17:41.632Z,76.2
2022-11-24T12:18:59.423Z,76.4
2022-11-24T12:19:41.643Z,76.5
2022-11-24T12:20:41.668Z,76.3
2022-11-24T12:21:41.679Z,76.3
2022-11-24T12:22:41.699Z,76.1
2022-11-24T12:23:41.710Z,76.0
2022-11-24T12:24:41.977Z,76.0
2022-11-24T12:25:41.738Z,76.0
2022-11-24T12:26:41.757Z,76.0
2022-11-24T12:27:41.783Z,76.0
2022-11-24T12:28:41.783Z,75.9
2022-11-24T12:29:41.802Z,75.9
2022-11-24T12:30:41.813Z,75.9
2022-11-24T12:31:42.252Z,75.9
2022-11-24T12:32:41.847Z,75.9
2022-11-24T12:33:53.276Z,75.9
2022-11-24T12:34:41.872Z,75.9
2022-11-24T12:35:41.865Z,76.1
2022-11-24T12:36:41.891Z,76.2
2022-11-24T12:37:41.906Z,76.2
2022-11-24T12:38:41.910Z,76.1
2022-11-24T12:39:41.918Z,76.0
2022-11-24T12:40:47.495Z,76.1
2022-11-24T12:41:43.349Z,76.2
2022-11-24T12:42:41.957Z,76.1
2022-11-24T12:43:41.974Z,76.1
2022-11-24T12:44:41.980Z,76.0
2022-11-24T12:45:42.006Z,75.9
2022-11-24T12:46:42.161Z,76.1
2022-11-24T12:47:42.025Z,76.1
2022-11-24T12:48:42.028Z,75.9
2022-11-24T12:49:42.041Z,76.1
2022-11-24T12:50:42.075Z,76.1
2022-11-24T12:51:42.079Z,76.1
2022-11-24T12:52:42.083Z,76.0
2022-11-24T12:53:42.098Z,75.9
2022-11-24T12:54:42.106Z,75.7
2022-11-24T12:55:42.120Z,75.8
2022-11-24T12:56:42.166Z,75.8
2022-11-24T12:57:42.158Z,75.7
2022-11-24T12:58:42.158Z,75.7
2022-11-24T12:59:42.184Z,75.9
2022-11-24T13:00:42.212Z,75.7
2022-11-24T13:01:42.742Z,75.4
2022-11-24T13:02:42.695Z,75.5
2022-11-24T13:03:42.241Z,75.6
2022-11-24T13:04:42.253Z,75.5
2022-11-24T13:05:42.263Z,75.6
2022-11-24T13:06:49.898Z,75.5
2022-11-24T13:07:42.286Z,75.3
2022-11-24T13:08:42.296Z,75.2
2022-11-24T13:09:42.349Z,75.2
2022-11-24T13:10:58.200Z,75.4
2022-11-24T13:11:42.337Z,75.2
2022-11-24T13:12:42.352Z,75.2
2022-11-24T13:13:42.364Z,75.3
2022-11-24T13:14:42.371Z,75.2
2022-11-24T13:15:46.482Z,75.1
2022-11-24T13:18:10.342Z,75.0
2022-11-24T13:18:42.603Z,74.9
2022-11-24T13:19:42.418Z,75.0
2022-11-24T13:20:42.417Z,75.0
2022-11-24T13:21:42.442Z,75.0
2022-11-24T13:22:42.431Z,75.1
2022-11-24T13:23:42.441Z,75.1
2022-11-24T13:24:42.444Z,74.8
2022-11-24T13:25:42.460Z,75.0
2022-11-24T13:26:42.500Z,75.0
2022-11-24T13:27:42.492Z,75.1
2022-11-24T13:29:09.215Z,75.1
2022-11-24T13:29:42.565Z,75.1
2022-11-24T13:30:42.630Z,75.3
2022-11-24T13:31:42.840Z,75.2
2022-11-24T13:32:42.559Z,75.5
2022-11-24T13:33:42.582Z,75.6
2022-11-24T13:34:42.698Z,75.7
2022-11-24T13:35:42.612Z,75.8
2022-11-24T13:36:42.618Z,75.9
2022-11-24T13:37:42.639Z,76.0
2022-11-24T13:38:42.731Z,76.0
2022-11-24T13:39:50.858Z,76.0
2022-11-24T13:41:21.174Z,76.1